Extrem niedrige Temperatur Gültig von: 09-04-2020 23:00 bis: 10-04-2020 06:00 Warnung für: Extrem niedrige Temperatur Gefahrenstufe: Gelb info button

Meine Webcam more information My webcam


Donnerradar more information blitzortung!


Regenradar more information rain snow radar



METAR-Meldungen aus der Umgebung

   
EDDH - Hamburg
Aktualisierung: 09-04-2020 14:50
leicht bewölkt  
leicht bewölkt  
   Wind: WNW 24.1 km/h
Wind: WNW 24.1 km/h
Temperatur: 16°C
Taupunkt: 6°C
Luftfeuchte: 52%
Luftdruck: 1025 hPa
Bewölkt: leicht bewölkt
Sichtbarkeit: More than 10 km
Bewölkung: leicht bewölkt 3800 ft
EDDH 091250Z 30013KT 260V320 9999 FEW038 16/06 Q1025 NOSIG
EDHL - Lübeck
Aktualisierung: 09-04-2020 14:50
Stark bewölkt  
Stark bewölkt  
   Wind: variiert 9.3 km/h
Wind: variiert 9.3 km/h
Temperatur: 15°C
Taupunkt: 7°C
Luftfeuchte: 59%
Luftdruck: 1025 hPa
Bewölkt: Stark bewölkt
Sichtbarkeit: More than 10 km
Bewölkung: Stark bewölkt 3200 ft
EDHL 091250Z VRB05KT 9999 BKN032 15/07 Q1025
EHBK - Amsterdam
Aktualisierung: 09-04-2020 14:55
Klar  
Klar  
   Wind: Norden 14.8 km/h
Wind: Norden 14.8 km/h
Temperatur: 21°C
Taupunkt: 10°C
Luftfeuchte: 50%
Luftdruck: 1024 hPa
Bewölkt: Klar
Sichtbarkeit: More than 10 km
Bewölkung: Klar
EHBK 091255Z AUTO 35008KT 310V040 9999 NCD 21/10 Q1024 NOSIG
EBCV - Mons/Bergen
Aktualisierung: 09-04-2020 15:07
Klar  
Klar  
   Wind: NNO 14.8 km/h
Wind: NNO 14.8 km/h
Temperatur: 21°C
Taupunkt: 10°C
Luftfeuchte: 50%
Luftdruck: 1024 hPa
Bewölkt: Klar
Sichtbarkeit: 7 km
Bewölkung: Klar
EBCV 091307Z AUTO 02008KT 7000 NCD 21/10 Q1024 WHT
ELLX - Luxemburg
Aktualisierung: 09-04-2020 14:50
Klar  
Klar  
   Wind: variiert 9.3 km/h
Wind: variiert 9.3 km/h
Temperatur: 23°C
Taupunkt: 3°C
Luftfeuchte: 27%
Luftdruck: 1024 hPa
Sichtbarkeit: More than 10 km
Bewölkung: Klar
ELLX 091250Z VRB05KT CAVOK 23/03 Q1024 NOSIG
EBOS - Oostende
Aktualisierung: 09-04-2020 14:50
Klar  
Klar  
   Wind: ONO 18.5 km/h
Wind: ONO 18.5 km/h
Temperatur: 20°C
Taupunkt: 8°C
Luftfeuchte: 46%
Luftdruck: 1026 hPa
Sichtbarkeit: More than 10 km
Bewölkung: Klar
EBOS 091250Z 06010KT 020V090 CAVOK 20/08 Q1026 NOSIG

Script entwickelt von  Saratoga-weather.org Angepasst für das Template von  Weerstation Leuven

Sie finden meine Wetter-Infos auch auf:

Weather Underground

Germany Weather Network

AWEKAS

WeatherlinkIP

Von mir verwendete Ausrüstung:

Wetterstation
Davis VP2

Wetterprogramm
Weather Display

WetterComputer
RaspberryPi

Anbieter
1und1

Davis VP2

Weather Display

RaspberryPi

1und1